sensor_id;sensor_type;location;lat;lon;timestamp;P1;durP1;ratioP1;P2;durP2;ratioP2
70908;SDS011;58554;52.006;5.926;2022-12-18T00:01:47;53.53;;;19.70;;
70908;SDS011;58554;52.006;5.926;2022-12-18T00:04:15;57.95;;;20.60;;
70908;SDS011;58554;52.006;5.926;2022-12-18T00:06:47;43.70;;;18.58;;
70908;SDS011;58554;52.006;5.926;2022-12-18T00:09:13;51.08;;;19.08;;
70908;SDS011;58554;52.006;5.926;2022-12-18T00:11:43;52.60;;;19.73;;
70908;SDS011;58554;52.006;5.926;2022-12-18T00:14:10;52.33;;;20.47;;
70908;SDS011;58554;52.006;5.926;2022-12-18T00:16:39;46.20;;;19.30;;
70908;SDS011;58554;52.006;5.926;2022-12-18T00:19:08;50.45;;;20.08;;
70908;SDS011;58554;52.006;5.926;2022-12-18T00:21:39;52.47;;;21.50;;
70908;SDS011;58554;52.006;5.926;2022-12-18T00:24:08;45.63;;;20.50;;
70908;SDS011;58554;52.006;5.926;2022-12-18T00:26:36;48.23;;;20.80;;
70908;SDS011;58554;52.006;5.926;2022-12-18T00:29:08;48.92;;;18.40;;
70908;SDS011;58554;52.006;5.926;2022-12-18T00:31:38;51.00;;;20.08;;
70908;SDS011;58554;52.006;5.926;2022-12-18T00:34:06;52.73;;;20.03;;
70908;SDS011;58554;52.006;5.926;2022-12-18T00:36:35;51.70;;;19.43;;
70908;SDS011;58554;52.006;5.926;2022-12-18T00:39:03;55.03;;;22.20;;
70908;SDS011;58554;52.006;5.926;2022-12-18T00:41:31;48.47;;;18.08;;
70908;SDS011;58554;52.006;5.926;2022-12-18T00:43:58;47.15;;;18.70;;
70908;SDS011;58554;52.006;5.926;2022-12-18T00:46:27;50.53;;;21.92;;
70908;SDS011;58554;52.006;5.926;2022-12-18T00:48:54;50.35;;;19.10;;
70908;SDS011;58554;52.006;5.926;2022-12-18T00:51:20;42.95;;;17.15;;
70908;SDS011;58554;52.006;5.926;2022-12-18T00:53:47;47.10;;;18.80;;
70908;SDS011;58554;52.006;5.926;2022-12-18T00:56:14;45.08;;;18.58;;
70908;SDS011;58554;52.006;5.926;2022-12-18T00:58:40;45.80;;;17.27;;
70908;SDS011;58554;52.006;5.926;2022-12-18T01:01:07;43.17;;;17.67;;
70908;SDS011;58554;52.006;5.926;2022-12-18T01:03:36;52.60;;;20.92;;
70908;SDS011;58554;52.006;5.926;2022-12-18T01:06:05;44.47;;;17.70;;
70908;SDS011;58554;52.006;5.926;2022-12-18T01:08:32;46.35;;;17.30;;
70908;SDS011;58554;52.006;5.926;2022-12-18T01:10:59;44.65;;;18.35;;
70908;SDS011;58554;52.006;5.926;2022-12-18T01:13:28;43.65;;;18.33;;
70908;SDS011;58554;52.006;5.926;2022-12-18T01:15:55;46.17;;;17.93;;
70908;SDS011;58554;52.006;5.926;2022-12-18T01:18:21;41.67;;;18.50;;
70908;SDS011;58554;52.006;5.926;2022-12-18T01:20:52;44.33;;;18.38;;
70908;SDS011;58554;52.006;5.926;2022-12-18T01:23:18;44.28;;;17.95;;
70908;SDS011;58554;52.006;5.926;2022-12-18T01:25:45;47.10;;;18.50;;
70908;SDS011;58554;52.006;5.926;2022-12-18T01:28:11;44.72;;;18.17;;
70908;SDS011;58554;52.006;5.926;2022-12-18T01:30:38;38.05;;;16.38;;
70908;SDS011;58554;52.006;5.926;2022-12-18T01:33:04;44.63;;;17.08;;
70908;SDS011;58554;52.006;5.926;2022-12-18T01:35:31;46.10;;;19.00;;
70908;SDS011;58554;52.006;5.926;2022-12-18T01:38:00;39.92;;;17.27;;
70908;SDS011;58554;52.006;5.926;2022-12-18T01:40:27;39.27;;;16.67;;
70908;SDS011;58554;52.006;5.926;2022-12-18T01:42:53;44.60;;;17.83;;
70908;SDS011;58554;52.006;5.926;2022-12-18T01:45:22;41.85;;;17.15;;
70908;SDS011;58554;52.006;5.926;2022-12-18T01:47:52;44.60;;;18.05;;
70908;SDS011;58554;52.006;5.926;2022-12-18T01:50:22;38.92;;;15.95;;
70908;SDS011;58554;52.006;5.926;2022-12-18T01:52:55;37.85;;;17.42;;
70908;SDS011;58554;52.006;5.926;2022-12-18T01:55:32;43.75;;;17.33;;
70908;SDS011;58554;52.006;5.926;2022-12-18T01:58:05;42.88;;;16.95;;
70908;SDS011;58554;52.006;5.926;2022-12-18T02:00:32;39.47;;;16.43;;
70908;SDS011;58554;52.006;5.926;2022-12-18T02:02:59;43.03;;;17.07;;
70908;SDS011;58554;52.006;5.926;2022-12-18T02:05:29;43.30;;;17.63;;
70908;SDS011;58554;52.006;5.926;2022-12-18T02:08:13;41.72;;;17.13;;
70908;SDS011;58554;52.006;5.926;2022-12-18T02:10:48;39.05;;;16.27;;
70908;SDS011;58554;52.006;5.926;2022-12-18T02:13:28;35.75;;;16.52;;
70908;SDS011;58554;52.006;5.926;2022-12-18T02:16:08;43.67;;;17.80;;
70908;SDS011;58554;52.006;5.926;2022-12-18T02:18:47;44.40;;;18.45;;
70908;SDS011;58554;52.006;5.926;2022-12-18T02:21:21;33.70;;;15.63;;
70908;SDS011;58554;52.006;5.926;2022-12-18T02:24:13;34.63;;;16.13;;
70908;SDS011;58554;52.006;5.926;2022-12-18T02:26:58;35.33;;;15.57;;
70908;SDS011;58554;52.006;5.926;2022-12-18T02:29:32;36.72;;;15.57;;
70908;SDS011;58554;52.006;5.926;2022-12-18T02:32:06;33.57;;;15.83;;
70908;SDS011;58554;52.006;5.926;2022-12-18T02:34:40;40.33;;;16.85;;
70908;SDS011;58554;52.006;5.926;2022-12-18T02:37:10;37.20;;;17.63;;
70908;SDS011;58554;52.006;5.926;2022-12-18T02:39:44;37.50;;;15.75;;
70908;SDS011;58554;52.006;5.926;2022-12-18T02:42:18;39.10;;;16.98;;
70908;SDS011;58554;52.006;5.926;2022-12-18T02:44:46;38.95;;;15.65;;
70908;SDS011;58554;52.006;5.926;2022-12-18T02:47:16;33.78;;;15.50;;
70908;SDS011;58554;52.006;5.926;2022-12-18T02:49:49;39.92;;;15.60;;
70908;SDS011;58554;52.006;5.926;2022-12-18T02:52:30;29.20;;;14.43;;
70908;SDS011;58554;52.006;5.926;2022-12-18T02:55:11;37.63;;;15.07;;
70908;SDS011;58554;52.006;5.926;2022-12-18T02:58:02;36.63;;;14.97;;
70908;SDS011;58554;52.006;5.926;2022-12-18T03:00:38;32.40;;;15.23;;
70908;SDS011;58554;52.006;5.926;2022-12-18T03:03:16;33.70;;;15.53;;
70908;SDS011;58554;52.006;5.926;2022-12-18T03:05:53;35.10;;;15.25;;
70908;SDS011;58554;52.006;5.926;2022-12-18T03:08:28;35.38;;;14.57;;
70908;SDS011;58554;52.006;5.926;2022-12-18T03:11:03;35.55;;;15.60;;
70908;SDS011;58554;52.006;5.926;2022-12-18T03:13:36;34.65;;;15.40;;
70908;SDS011;58554;52.006;5.926;2022-12-18T03:16:12;28.58;;;14.40;;
70908;SDS011;58554;52.006;5.926;2022-12-18T03:18:49;33.55;;;14.55;;
70908;SDS011;58554;52.006;5.926;2022-12-18T03:21:23;33.75;;;14.00;;
70908;SDS011;58554;52.006;5.926;2022-12-18T03:23:59;30.67;;;15.02;;
70908;SDS011;58554;52.006;5.926;2022-12-18T03:26:30;31.90;;;14.37;;
70908;SDS011;58554;52.006;5.926;2022-12-18T03:29:02;37.20;;;15.60;;
70908;SDS011;58554;52.006;5.926;2022-12-18T03:31:39;36.22;;;14.90;;
70908;SDS011;58554;52.006;5.926;2022-12-18T03:34:12;30.27;;;13.20;;
70908;SDS011;58554;52.006;5.926;2022-12-18T03:36:45;28.23;;;12.87;;
70908;SDS011;58554;52.006;5.926;2022-12-18T03:39:12;30.73;;;13.60;;
70908;SDS011;58554;52.006;5.926;2022-12-18T03:41:41;35.05;;;14.65;;
70908;SDS011;58554;52.006;5.926;2022-12-18T03:44:17;29.60;;;14.73;;
70908;SDS011;58554;52.006;5.926;2022-12-18T03:46:54;31.90;;;13.90;;
70908;SDS011;58554;52.006;5.926;2022-12-18T03:49:33;31.30;;;12.85;;
70908;SDS011;58554;52.006;5.926;2022-12-18T03:52:07;31.10;;;14.00;;
70908;SDS011;58554;52.006;5.926;2022-12-18T03:54:41;26.90;;;12.60;;
70908;SDS011;58554;52.006;5.926;2022-12-18T03:57:11;35.27;;;13.90;;
70908;SDS011;58554;52.006;5.926;2022-12-18T03:59:47;29.70;;;13.03;;
70908;SDS011;58554;52.006;5.926;2022-12-18T04:02:21;29.95;;;12.63;;
70908;SDS011;58554;52.006;5.926;2022-12-18T04:04:50;30.50;;;13.73;;
70908;SDS011;58554;52.006;5.926;2022-12-18T04:07:22;27.65;;;12.75;;
70908;SDS011;58554;52.006;5.926;2022-12-18T04:09:50;25.58;;;13.13;;
70908;SDS011;58554;52.006;5.926;2022-12-18T04:12:23;24.67;;;12.40;;
70908;SDS011;58554;52.006;5.926;2022-12-18T04:14:53;27.73;;;12.53;;
70908;SDS011;58554;52.006;5.926;2022-12-18T04:17:20;30.63;;;12.93;;
70908;SDS011;58554;52.006;5.926;2022-12-18T04:19:47;24.17;;;11.48;;
70908;SDS011;58554;52.006;5.926;2022-12-18T04:22:14;28.52;;;12.63;;
70908;SDS011;58554;52.006;5.926;2022-12-18T04:24:41;28.37;;;11.93;;
70908;SDS011;58554;52.006;5.926;2022-12-18T04:27:08;28.90;;;12.83;;
70908;SDS011;58554;52.006;5.926;2022-12-18T04:29:34;29.05;;;12.50;;
70908;SDS011;58554;52.006;5.926;2022-12-18T04:32:03;25.85;;;12.52;;
70908;SDS011;58554;52.006;5.926;2022-12-18T04:34:30;28.50;;;13.73;;
70908;SDS011;58554;52.006;5.926;2022-12-18T04:36:57;28.87;;;12.27;;
70908;SDS011;58554;52.006;5.926;2022-12-18T04:39:23;26.48;;;12.75;;
70908;SDS011;58554;52.006;5.926;2022-12-18T04:41:50;28.88;;;12.48;;
70908;SDS011;58554;52.006;5.926;2022-12-18T04:44:17;28.93;;;12.70;;
70908;SDS011;58554;52.006;5.926;2022-12-18T04:46:43;21.67;;;11.43;;
70908;SDS011;58554;52.006;5.926;2022-12-18T04:49:12;25.70;;;12.27;;
70908;SDS011;58554;52.006;5.926;2022-12-18T04:51:39;31.70;;;12.90;;
70908;SDS011;58554;52.006;5.926;2022-12-18T04:54:06;27.80;;;12.20;;
70908;SDS011;58554;52.006;5.926;2022-12-18T04:56:32;27.60;;;11.88;;
70908;SDS011;58554;52.006;5.926;2022-12-18T04:58:59;25.25;;;11.73;;
70908;SDS011;58554;52.006;5.926;2022-12-18T05:01:25;21.25;;;10.80;;
70908;SDS011;58554;52.006;5.926;2022-12-18T05:03:52;28.10;;;13.50;;
70908;SDS011;58554;52.006;5.926;2022-12-18T05:06:21;26.00;;;11.87;;
70908;SDS011;58554;52.006;5.926;2022-12-18T05:08:48;26.88;;;11.55;;
70908;SDS011;58554;52.006;5.926;2022-12-18T05:11:15;23.67;;;11.83;;
70908;SDS011;58554;52.006;5.926;2022-12-18T05:13:42;26.13;;;11.73;;
70908;SDS011;58554;52.006;5.926;2022-12-18T05:16:10;26.33;;;11.68;;
70908;SDS011;58554;52.006;5.926;2022-12-18T05:18:38;27.57;;;13.37;;
70908;SDS011;58554;52.006;5.926;2022-12-18T05:21:05;30.13;;;13.23;;
70908;SDS011;58554;52.006;5.926;2022-12-18T05:23:37;26.23;;;12.43;;
70908;SDS011;58554;52.006;5.926;2022-12-18T05:26:05;23.60;;;11.97;;
70908;SDS011;58554;52.006;5.926;2022-12-18T05:28:33;22.97;;;11.97;;
70908;SDS011;58554;52.006;5.926;2022-12-18T05:31:02;23.73;;;10.77;;
70908;SDS011;58554;52.006;5.926;2022-12-18T05:33:31;27.00;;;12.40;;
70908;SDS011;58554;52.006;5.926;2022-12-18T05:36:03;22.08;;;11.48;;
70908;SDS011;58554;52.006;5.926;2022-12-18T05:38:33;16.33;;;9.93;;
70908;SDS011;58554;52.006;5.926;2022-12-18T05:41:05;25.07;;;10.90;;
70908;SDS011;58554;52.006;5.926;2022-12-18T05:43:33;21.67;;;10.90;;
70908;SDS011;58554;52.006;5.926;2022-12-18T05:46:03;26.15;;;12.13;;
70908;SDS011;58554;52.006;5.926;2022-12-18T05:48:31;26.03;;;12.07;;
70908;SDS011;58554;52.006;5.926;2022-12-18T05:51:02;24.63;;;12.30;;
70908;SDS011;58554;52.006;5.926;2022-12-18T05:53:31;27.10;;;11.75;;
70908;SDS011;58554;52.006;5.926;2022-12-18T05:56:02;25.30;;;11.98;;
70908;SDS011;58554;52.006;5.926;2022-12-18T05:58:31;24.37;;;11.77;;
70908;SDS011;58554;52.006;5.926;2022-12-18T06:01:05;22.52;;;11.30;;
70908;SDS011;58554;52.006;5.926;2022-12-18T06:03:35;24.47;;;11.63;;
70908;SDS011;58554;52.006;5.926;2022-12-18T06:06:02;26.13;;;12.60;;
70908;SDS011;58554;52.006;5.926;2022-12-18T06:08:29;26.37;;;13.17;;
70908;SDS011;58554;52.006;5.926;2022-12-18T06:10:55;27.50;;;12.17;;
70908;SDS011;58554;52.006;5.926;2022-12-18T06:13:25;24.65;;;12.05;;
70908;SDS011;58554;52.006;5.926;2022-12-18T06:15:51;22.95;;;12.45;;
70908;SDS011;58554;52.006;5.926;2022-12-18T06:18:18;24.77;;;11.25;;
70908;SDS011;58554;52.006;5.926;2022-12-18T06:20:44;20.60;;;10.75;;
70908;SDS011;58554;52.006;5.926;2022-12-18T06:23:11;27.43;;;13.83;;
70908;SDS011;58554;52.006;5.926;2022-12-18T06:25:37;27.13;;;12.83;;
70908;SDS011;58554;52.006;5.926;2022-12-18T06:28:05;23.67;;;12.07;;
70908;SDS011;58554;52.006;5.926;2022-12-18T06:30:34;25.60;;;12.10;;
70908;SDS011;58554;52.006;5.926;2022-12-18T06:33:00;23.25;;;11.60;;
70908;SDS011;58554;52.006;5.926;2022-12-18T06:35:27;21.42;;;10.90;;
70908;SDS011;58554;52.006;5.926;2022-12-18T06:37:54;24.83;;;11.63;;
70908;SDS011;58554;52.006;5.926;2022-12-18T06:40:20;21.60;;;10.88;;
70908;SDS011;58554;52.006;5.926;2022-12-18T06:42:47;23.40;;;11.68;;
70908;SDS011;58554;52.006;5.926;2022-12-18T06:45:16;24.43;;;12.00;;
70908;SDS011;58554;52.006;5.926;2022-12-18T06:47:45;25.40;;;11.77;;
70908;SDS011;58554;52.006;5.926;2022-12-18T06:50:12;22.98;;;10.98;;
70908;SDS011;58554;52.006;5.926;2022-12-18T06:52:39;23.10;;;12.20;;
70908;SDS011;58554;52.006;5.926;2022-12-18T06:55:09;25.23;;;11.70;;
70908;SDS011;58554;52.006;5.926;2022-12-18T06:57:37;21.90;;;11.20;;
70908;SDS011;58554;52.006;5.926;2022-12-18T07:00:04;27.73;;;12.03;;
70908;SDS011;58554;52.006;5.926;2022-12-18T07:02:33;24.05;;;11.77;;
70908;SDS011;58554;52.006;5.926;2022-12-18T07:05:03;21.80;;;10.73;;
70908;SDS011;58554;52.006;5.926;2022-12-18T07:07:33;24.17;;;11.13;;
70908;SDS011;58554;52.006;5.926;2022-12-18T07:10:00;23.83;;;11.10;;
70908;SDS011;58554;52.006;5.926;2022-12-18T07:12:26;23.95;;;12.25;;
70908;SDS011;58554;52.006;5.926;2022-12-18T07:14:53;26.00;;;11.45;;
70908;SDS011;58554;52.006;5.926;2022-12-18T07:17:19;22.53;;;11.27;;
70908;SDS011;58554;52.006;5.926;2022-12-18T07:19:46;23.87;;;11.77;;
70908;SDS011;58554;52.006;5.926;2022-12-18T07:22:15;24.67;;;11.82;;
70908;SDS011;58554;52.006;5.926;2022-12-18T07:24:42;23.88;;;10.68;;
70908;SDS011;58554;52.006;5.926;2022-12-18T07:27:08;23.15;;;10.75;;
70908;SDS011;58554;52.006;5.926;2022-12-18T07:29:35;22.85;;;11.02;;
70908;SDS011;58554;52.006;5.926;2022-12-18T07:32:01;25.25;;;11.68;;
70908;SDS011;58554;52.006;5.926;2022-12-18T07:34:28;19.88;;;9.82;;
70908;SDS011;58554;52.006;5.926;2022-12-18T07:36:54;25.02;;;10.63;;
70908;SDS011;58554;52.006;5.926;2022-12-18T07:39:23;26.15;;;12.32;;
70908;SDS011;58554;52.006;5.926;2022-12-18T07:41:50;21.37;;;10.67;;
70908;SDS011;58554;52.006;5.926;2022-12-18T07:44:17;22.80;;;10.83;;
70908;SDS011;58554;52.006;5.926;2022-12-18T07:46:43;24.33;;;10.75;;
70908;SDS011;58554;52.006;5.926;2022-12-18T07:49:10;25.73;;;11.55;;
70908;SDS011;58554;52.006;5.926;2022-12-18T07:51:38;23.70;;;11.27;;
70908;SDS011;58554;52.006;5.926;2022-12-18T07:54:04;23.77;;;11.02;;
70908;SDS011;58554;52.006;5.926;2022-12-18T07:56:36;21.85;;;11.05;;
70908;SDS011;58554;52.006;5.926;2022-12-18T07:59:05;25.93;;;11.60;;
70908;SDS011;58554;52.006;5.926;2022-12-18T08:01:32;22.15;;;10.85;;
70908;SDS011;58554;52.006;5.926;2022-12-18T08:03:59;20.80;;;10.60;;
70908;SDS011;58554;52.006;5.926;2022-12-18T08:06:26;22.85;;;11.10;;
70908;SDS011;58554;52.006;5.926;2022-12-18T08:08:53;21.35;;;10.25;;
70908;SDS011;58554;52.006;5.926;2022-12-18T08:11:21;26.13;;;10.98;;
70908;SDS011;58554;52.006;5.926;2022-12-18T08:13:58;22.93;;;11.13;;
70908;SDS011;58554;52.006;5.926;2022-12-18T08:16:24;20.00;;;9.07;;
70908;SDS011;58554;52.006;5.926;2022-12-18T08:18:52;21.88;;;10.07;;
70908;SDS011;58554;52.006;5.926;2022-12-18T08:21:26;21.20;;;10.48;;
70908;SDS011;58554;52.006;5.926;2022-12-18T08:23:59;21.30;;;10.23;;
70908;SDS011;58554;52.006;5.926;2022-12-18T08:26:36;21.13;;;10.10;;
70908;SDS011;58554;52.006;5.926;2022-12-18T08:29:06;20.40;;;9.40;;
70908;SDS011;58554;52.006;5.926;2022-12-18T08:31:32;24.17;;;11.17;;
70908;SDS011;58554;52.006;5.926;2022-12-18T08:33:59;23.33;;;10.30;;
70908;SDS011;58554;52.006;5.926;2022-12-18T08:36:26;20.23;;;9.80;;
70908;SDS011;58554;52.006;5.926;2022-12-18T08:38:52;21.13;;;10.30;;
70908;SDS011;58554;52.006;5.926;2022-12-18T08:41:19;24.13;;;10.17;;
70908;SDS011;58554;52.006;5.926;2022-12-18T08:43:47;23.13;;;10.13;;
70908;SDS011;58554;52.006;5.926;2022-12-18T08:46:20;20.10;;;10.07;;
70908;SDS011;58554;52.006;5.926;2022-12-18T08:48:48;19.38;;;10.18;;
70908;SDS011;58554;52.006;5.926;2022-12-18T08:51:20;26.57;;;10.87;;
70908;SDS011;58554;52.006;5.926;2022-12-18T08:53:49;19.80;;;9.37;;
70908;SDS011;58554;52.006;5.926;2022-12-18T08:56:16;22.43;;;10.37;;
70908;SDS011;58554;52.006;5.926;2022-12-18T08:58:43;21.05;;;10.50;;
70908;SDS011;58554;52.006;5.926;2022-12-18T09:01:11;21.15;;;10.68;;
70908;SDS011;58554;52.006;5.926;2022-12-18T09:03:41;23.07;;;10.57;;
70908;SDS011;58554;52.006;5.926;2022-12-18T09:06:08;20.60;;;10.40;;
70908;SDS011;58554;52.006;5.926;2022-12-18T09:08:38;22.85;;;10.55;;
70908;SDS011;58554;52.006;5.926;2022-12-18T09:11:09;20.73;;;10.27;;
70908;SDS011;58554;52.006;5.926;2022-12-18T09:13:40;19.75;;;10.65;;
70908;SDS011;58554;52.006;5.926;2022-12-18T09:16:06;20.27;;;9.30;;
70908;SDS011;58554;52.006;5.926;2022-12-18T09:18:33;18.50;;;8.80;;
70908;SDS011;58554;52.006;5.926;2022-12-18T09:21:06;18.25;;;8.80;;
70908;SDS011;58554;52.006;5.926;2022-12-18T09:23:34;21.23;;;10.20;;
70908;SDS011;58554;52.006;5.926;2022-12-18T09:26:01;18.83;;;10.10;;
70908;SDS011;58554;52.006;5.926;2022-12-18T09:28:30;18.38;;;9.60;;
70908;SDS011;58554;52.006;5.926;2022-12-18T09:30:56;18.10;;;8.80;;
70908;SDS011;58554;52.006;5.926;2022-12-18T09:33:28;19.42;;;8.90;;
70908;SDS011;58554;52.006;5.926;2022-12-18T09:35:54;22.05;;;10.10;;
70908;SDS011;58554;52.006;5.926;2022-12-18T09:38:23;18.85;;;9.57;;
70908;SDS011;58554;52.006;5.926;2022-12-18T09:40:51;17.90;;;8.43;;
70908;SDS011;58554;52.006;5.926;2022-12-18T09:43:24;17.03;;;8.87;;
70908;SDS011;58554;52.006;5.926;2022-12-18T09:46:03;14.10;;;7.27;;
70908;SDS011;58554;52.006;5.926;2022-12-18T09:48:39;15.47;;;8.50;;
70908;SDS011;58554;52.006;5.926;2022-12-18T09:51:11;17.77;;;8.83;;
70908;SDS011;58554;52.006;5.926;2022-12-18T09:53:50;16.58;;;8.23;;
70908;SDS011;58554;52.006;5.926;2022-12-18T09:56:24;17.38;;;8.18;;
70908;SDS011;58554;52.006;5.926;2022-12-18T09:58:55;15.05;;;7.22;;
70908;SDS011;58554;52.006;5.926;2022-12-18T10:01:26;17.93;;;7.77;;
70908;SDS011;58554;52.006;5.926;2022-12-18T10:04:00;16.27;;;8.45;;
70908;SDS011;58554;52.006;5.926;2022-12-18T10:06:28;17.15;;;9.15;;
70908;SDS011;58554;52.006;5.926;2022-12-18T10:09:08;16.63;;;8.45;;
70908;SDS011;58554;52.006;5.926;2022-12-18T10:14:41;15.15;;;6.53;;
70908;SDS011;58554;52.006;5.926;2022-12-18T10:17:22;16.35;;;8.60;;
70908;SDS011;58554;52.006;5.926;2022-12-18T10:20:18;13.02;;;6.28;;
70908;SDS011;58554;52.006;5.926;2022-12-18T10:23:00;15.95;;;8.07;;
70908;SDS011;58554;52.006;5.926;2022-12-18T10:25:49;17.58;;;8.43;;
70908;SDS011;58554;52.006;5.926;2022-12-18T10:28:29;19.83;;;9.10;;
70908;SDS011;58554;52.006;5.926;2022-12-18T10:31:04;16.37;;;8.77;;
70908;SDS011;58554;52.006;5.926;2022-12-18T10:33:32;16.45;;;7.90;;
70908;SDS011;58554;52.006;5.926;2022-12-18T10:36:00;16.38;;;7.70;;
70908;SDS011;58554;52.006;5.926;2022-12-18T10:38:27;14.52;;;7.70;;
70908;SDS011;58554;52.006;5.926;2022-12-18T10:41:02;21.95;;;9.13;;
70908;SDS011;58554;52.006;5.926;2022-12-18T10:43:32;18.23;;;9.65;;
70908;SDS011;58554;52.006;5.926;2022-12-18T10:48:50;20.00;;;9.63;;
70908;SDS011;58554;52.006;5.926;2022-12-18T10:51:22;16.57;;;9.17;;
70908;SDS011;58554;52.006;5.926;2022-12-18T10:53:59;17.43;;;9.10;;
70908;SDS011;58554;52.006;5.926;2022-12-18T10:56:42;19.70;;;10.03;;
70908;SDS011;58554;52.006;5.926;2022-12-18T10:59:10;16.92;;;7.55;;
70908;SDS011;58554;52.006;5.926;2022-12-18T11:01:46;18.90;;;7.90;;
70908;SDS011;58554;52.006;5.926;2022-12-18T11:04:23;20.20;;;9.65;;
70908;SDS011;58554;52.006;5.926;2022-12-18T11:06:53;18.58;;;9.63;;
70908;SDS011;58554;52.006;5.926;2022-12-18T11:09:24;17.98;;;9.00;;
70908;SDS011;58554;52.006;5.926;2022-12-18T11:11:55;20.10;;;9.35;;
70908;SDS011;58554;52.006;5.926;2022-12-18T11:14:28;7.65;;;4.10;;
70908;SDS011;58554;52.006;5.926;2022-12-18T11:16:59;19.13;;;9.23;;
70908;SDS011;58554;52.006;5.926;2022-12-18T11:19:32;19.35;;;9.60;;
70908;SDS011;58554;52.006;5.926;2022-12-18T11:22:02;18.95;;;10.05;;
70908;SDS011;58554;52.006;5.926;2022-12-18T11:24:51;16.98;;;8.07;;
70908;SDS011;58554;52.006;5.926;2022-12-18T11:27:24;19.77;;;9.50;;
70908;SDS011;58554;52.006;5.926;2022-12-18T11:30:06;17.43;;;9.60;;
70908;SDS011;58554;52.006;5.926;2022-12-18T11:32:35;18.93;;;9.37;;
70908;SDS011;58554;52.006;5.926;2022-12-18T11:35:11;15.73;;;8.03;;
70908;SDS011;58554;52.006;5.926;2022-12-18T11:37:47;17.52;;;8.10;;
70908;SDS011;58554;52.006;5.926;2022-12-18T11:40:21;20.13;;;10.33;;
70908;SDS011;58554;52.006;5.926;2022-12-18T11:43:01;16.77;;;9.70;;
70908;SDS011;58554;52.006;5.926;2022-12-18T11:45:37;18.10;;;10.27;;
70908;SDS011;58554;52.006;5.926;2022-12-18T11:48:16;19.00;;;9.27;;
70908;SDS011;58554;52.006;5.926;2022-12-18T11:50:49;18.10;;;9.07;;
70908;SDS011;58554;52.006;5.926;2022-12-18T11:53:19;19.95;;;9.48;;
70908;SDS011;58554;52.006;5.926;2022-12-18T11:55:51;17.92;;;9.77;;
70908;SDS011;58554;52.006;5.926;2022-12-18T11:58:43;17.23;;;8.50;;
70908;SDS011;58554;52.006;5.926;2022-12-18T12:01:23;19.40;;;8.97;;
70908;SDS011;58554;52.006;5.926;2022-12-18T12:07:20;17.57;;;8.90;;
70908;SDS011;58554;52.006;5.926;2022-12-18T12:13:31;21.17;;;10.10;;
70908;SDS011;58554;52.006;5.926;2022-12-18T12:16:24;19.02;;;8.70;;
70908;SDS011;58554;52.006;5.926;2022-12-18T12:22:12;20.02;;;9.30;;
70908;SDS011;58554;52.006;5.926;2022-12-18T12:25:21;19.53;;;9.33;;
70908;SDS011;58554;52.006;5.926;2022-12-18T12:28:06;17.10;;;8.50;;
70908;SDS011;58554;52.006;5.926;2022-12-18T12:34:08;18.63;;;9.90;;
70908;SDS011;58554;52.006;5.926;2022-12-18T12:36:54;22.80;;;10.27;;
70908;SDS011;58554;52.006;5.926;2022-12-18T12:39:40;21.33;;;9.27;;
70908;SDS011;58554;52.006;5.926;2022-12-18T12:42:15;16.88;;;7.82;;
70908;SDS011;58554;52.006;5.926;2022-12-18T12:44:56;17.83;;;9.50;;
70908;SDS011;58554;52.006;5.926;2022-12-18T12:47:35;19.67;;;9.60;;
70908;SDS011;58554;52.006;5.926;2022-12-18T12:50:12;16.23;;;8.40;;
70908;SDS011;58554;52.006;5.926;2022-12-18T12:52:50;21.67;;;9.75;;
70908;SDS011;58554;52.006;5.926;2022-12-18T12:55:31;19.90;;;9.23;;
70908;SDS011;58554;52.006;5.926;2022-12-18T12:58:00;19.20;;;9.10;;
70908;SDS011;58554;52.006;5.926;2022-12-18T13:00:39;19.60;;;9.70;;
70908;SDS011;58554;52.006;5.926;2022-12-18T13:03:28;22.58;;;11.32;;
70908;SDS011;58554;52.006;5.926;2022-12-18T13:06:12;20.95;;;10.20;;
70908;SDS011;58554;52.006;5.926;2022-12-18T13:08:56;18.83;;;9.77;;
70908;SDS011;58554;52.006;5.926;2022-12-18T13:11:30;15.15;;;7.90;;
70908;SDS011;58554;52.006;5.926;2022-12-18T13:14:04;19.95;;;9.55;;
70908;SDS011;58554;52.006;5.926;2022-12-18T13:16:31;18.63;;;10.20;;
70908;SDS011;58554;52.006;5.926;2022-12-18T13:19:00;16.98;;;8.77;;
70908;SDS011;58554;52.006;5.926;2022-12-18T13:21:27;17.10;;;9.13;;
70908;SDS011;58554;52.006;5.926;2022-12-18T13:23:56;20.37;;;9.77;;
70908;SDS011;58554;52.006;5.926;2022-12-18T13:26:48;19.57;;;10.23;;
70908;SDS011;58554;52.006;5.926;2022-12-18T13:29:21;21.17;;;9.53;;
70908;SDS011;58554;52.006;5.926;2022-12-18T13:38:20;19.63;;;9.27;;
70908;SDS011;58554;52.006;5.926;2022-12-18T13:40:56;21.20;;;10.83;;
70908;SDS011;58554;52.006;5.926;2022-12-18T13:43:29;21.37;;;9.60;;
70908;SDS011;58554;52.006;5.926;2022-12-18T13:46:04;22.73;;;11.67;;
70908;SDS011;58554;52.006;5.926;2022-12-18T13:48:49;20.77;;;10.13;;
70908;SDS011;58554;52.006;5.926;2022-12-18T13:51:24;19.88;;;9.93;;
70908;SDS011;58554;52.006;5.926;2022-12-18T13:53:54;20.58;;;10.45;;
70908;SDS011;58554;52.006;5.926;2022-12-18T13:56:26;16.35;;;8.18;;
70908;SDS011;58554;52.006;5.926;2022-12-18T13:59:12;24.05;;;9.30;;
70908;SDS011;58554;52.006;5.926;2022-12-18T14:01:43;24.03;;;10.60;;
70908;SDS011;58554;52.006;5.926;2022-12-18T14:04:18;20.50;;;10.20;;
70908;SDS011;58554;52.006;5.926;2022-12-18T14:06:53;21.30;;;9.98;;
70908;SDS011;58554;52.006;5.926;2022-12-18T14:09:28;23.80;;;11.75;;
70908;SDS011;58554;52.006;5.926;2022-12-18T14:12:00;18.40;;;10.25;;
70908;SDS011;58554;52.006;5.926;2022-12-18T14:14:32;20.52;;;10.05;;
70908;SDS011;58554;52.006;5.926;2022-12-18T14:16:59;23.60;;;10.82;;
70908;SDS011;58554;52.006;5.926;2022-12-18T14:19:27;23.33;;;10.60;;
70908;SDS011;58554;52.006;5.926;2022-12-18T14:21:56;18.53;;;9.17;;
70908;SDS011;58554;52.006;5.926;2022-12-18T14:24:23;20.53;;;10.10;;
70908;SDS011;58554;52.006;5.926;2022-12-18T14:26:51;21.47;;;10.73;;
70908;SDS011;58554;52.006;5.926;2022-12-18T14:29:19;18.07;;;8.33;;
70908;SDS011;58554;52.006;5.926;2022-12-18T14:34:40;17.23;;;9.25;;
70908;SDS011;58554;52.006;5.926;2022-12-18T14:37:12;19.63;;;10.02;;
70908;SDS011;58554;52.006;5.926;2022-12-18T14:39:40;17.20;;;9.00;;
70908;SDS011;58554;52.006;5.926;2022-12-18T14:42:22;22.33;;;11.53;;
70908;SDS011;58554;52.006;5.926;2022-12-18T14:44:51;24.33;;;11.53;;
70908;SDS011;58554;52.006;5.926;2022-12-18T14:47:17;20.57;;;10.37;;
70908;SDS011;58554;52.006;5.926;2022-12-18T14:49:47;19.65;;;9.82;;
70908;SDS011;58554;52.006;5.926;2022-12-18T14:52:20;16.30;;;8.27;;
70908;SDS011;58554;52.006;5.926;2022-12-18T14:54:57;21.85;;;11.27;;
70908;SDS011;58554;52.006;5.926;2022-12-18T14:57:24;22.80;;;10.60;;
70908;SDS011;58554;52.006;5.926;2022-12-18T15:00:03;20.67;;;10.70;;
70908;SDS011;58554;52.006;5.926;2022-12-18T15:02:34;21.40;;;10.43;;
70908;SDS011;58554;52.006;5.926;2022-12-18T15:05:05;23.43;;;11.17;;
70908;SDS011;58554;52.006;5.926;2022-12-18T15:07:47;24.33;;;11.47;;
70908;SDS011;58554;52.006;5.926;2022-12-18T15:10:17;26.17;;;11.00;;
70908;SDS011;58554;52.006;5.926;2022-12-18T15:12:47;22.93;;;11.37;;
70908;SDS011;58554;52.006;5.926;2022-12-18T15:15:47;21.80;;;11.00;;
70908;SDS011;58554;52.006;5.926;2022-12-18T15:18:15;25.00;;;10.95;;
70908;SDS011;58554;52.006;5.926;2022-12-18T15:20:47;18.20;;;9.05;;